Time;durP1;ratioP1;P1;durP2;ratioP2;P2;SDS_P1;SDS_P2;PMS_P1;PMS_P2;Temp;Humidity;BMP_temperature;BMP_pressure;BME280_temperature;BME280_humidity;BME280_pressure;Samples;Min_cycle;Max_cycle;Signal;HPM_P1;HPM_P2
2023/07/30 00:01:33;;;;;;;2.87;2.53;;;17.60;99.90;;;;;;5068048;28;20189;-70
2023/07/30 00:03:59;;;;;;;4.63;2.90;;;17.60;99.90;;;;;;5066937;28;20192;-70
2023/07/30 00:06:25;;;;;;;5.60;2.70;;;17.60;99.90;;;;;;5066470;28;20181;-70
2023/07/30 00:08:50;;;;;;;3.33;3.00;;;17.40;99.90;;;;;;5067743;28;20480;-70
2023/07/30 00:11:16;;;;;;;4.43;2.70;;;17.40;99.90;;;;;;5067614;28;20411;-70
2023/07/30 00:13:42;;;;;;;5.90;3.20;;;17.30;99.90;;;;;;5067283;28;20212;-70
2023/07/30 00:16:08;;;;;;;4.50;2.77;;;17.20;99.90;;;;;;5067546;28;20412;-71
2023/07/30 00:18:34;;;;;;;4.53;3.10;;;17.20;99.90;;;;;;5067826;28;20818;-71
2023/07/30 00:20:59;;;;;;;3.90;2.30;;;17.10;99.90;;;;;;5068045;28;20181;-71
2023/07/30 00:23:25;;;;;;;5.20;2.80;;;17.10;99.90;;;;;;5067340;28;20184;-70
2023/07/30 00:25:51;;;;;;;4.60;2.63;;;17.10;99.90;;;;;;5067184;28;20526;-70
2023/07/30 00:28:16;;;;;;;5.03;2.80;;;17.10;99.90;;;;;;5066762;28;20254;-70
2023/07/30 00:30:42;;;;;;;4.87;2.70;;;17.10;99.90;;;;;;5067796;28;20184;-70
2023/07/30 00:33:08;;;;;;;3.30;2.50;;;17.10;99.90;;;;;;5066923;28;20700;-71
2023/07/30 00:35:34;;;;;;;4.50;2.50;;;17.10;99.90;;;;;;5066392;28;20173;-71
2023/07/30 00:37:59;;;;;;;4.63;2.27;;;17.10;99.90;;;;;;5067802;28;20197;-71
2023/07/30 00:40:25;;;;;;;5.67;2.67;;;17.00;99.90;;;;;;5067323;28;20184;-71
2023/07/30 00:42:51;;;;;;;3.90;2.10;;;17.00;99.90;;;;;;5067670;28;20184;-71
2023/07/30 00:45:16;;;;;;;4.03;2.47;;;17.00;99.90;;;;;;5066768;28;20180;-71
2023/07/30 00:47:43;;;;;;;4.60;2.53;;;16.90;99.90;;;;;;5065805;28;20205;-71
2023/07/30 00:50:12;;;;;;;2.97;2.47;;;16.80;99.90;;;;;;5067545;28;20192;-71
2023/07/30 00:52:39;;;;;;;3.90;2.53;;;16.70;99.90;;;;;;5067161;28;20497;-71
2023/07/30 00:55:06;;;;;;;3.93;2.77;;;16.60;99.90;;;;;;5066665;28;20420;-71
2023/07/30 00:57:32;;;;;;;6.03;2.50;;;16.60;99.90;;;;;;5066723;28;20427;-71
2023/07/30 00:59:58;;;;;;;3.00;2.43;;;16.60;99.90;;;;;;5065394;28;20953;-71
2023/07/30 01:02:24;;;;;;;5.20;2.70;;;16.60;99.90;;;;;;5066022;28;20937;-71
2023/07/30 01:04:50;;;;;;;3.00;2.20;;;16.60;99.90;;;;;;5065990;28;20557;-70
2023/07/30 01:07:16;;;;;;;4.90;2.67;;;16.50;99.90;;;;;;5067338;28;20869;-71
2023/07/30 01:09:42;;;;;;;3.20;2.33;;;16.50;99.90;;;;;;5065498;28;20502;-70
2023/07/30 01:12:08;;;;;;;3.30;2.73;;;16.60;99.90;;;;;;5066307;28;20287;-71
2023/07/30 01:14:37;;;;;;;3.30;2.47;;;16.60;99.90;;;;;;5066375;28;20416;-70
2023/07/30 01:17:04;;;;;;;4.63;2.70;;;16.60;99.90;;;;;;5067531;28;20427;-71
2023/07/30 01:19:30;;;;;;;3.17;2.87;;;16.50;99.90;;;;;;5067223;28;20426;-71
2023/07/30 01:21:56;;;;;;;2.97;2.60;;;16.50;99.90;;;;;;5067304;28;20465;-71
2023/07/30 01:24:22;;;;;;;3.70;3.00;;;16.50;99.90;;;;;;5066511;28;20415;-71
2023/07/30 01:26:57;;;;;;;7.50;2.73;;;16.40;99.90;;;;;;5066772;28;20235;-71
2023/07/30 01:29:32;;;;;;;4.93;2.97;;;16.40;99.90;;;;;;5067023;28;20230;-71
2023/07/30 01:32:04;;;;;;;9.60;3.00;;;16.40;99.90;;;;;;5067327;28;20456;-71
2023/07/30 01:34:34;;;;;;;5.60;3.43;;;16.40;99.90;;;;;;5065978;28;20513;-71
2023/07/30 01:37:00;;;;;;;6.57;3.07;;;16.40;99.90;;;;;;5067060;28;20428;-71
2023/07/30 01:39:27;;;;;;;3.73;2.47;;;16.40;99.90;;;;;;5067174;28;20753;-71
2023/07/30 01:41:56;;;;;;;3.63;2.53;;;16.30;99.90;;;;;;5067275;28;20468;-71
2023/07/30 01:44:22;;;;;;;3.20;2.50;;;16.30;99.90;;;;;;5067864;28;21054;-71
2023/07/30 01:46:47;;;;;;;3.13;2.77;;;16.20;99.90;;;;;;5070435;28;20527;-70
2023/07/30 01:49:13;;;;;;;4.97;2.60;;;16.20;99.90;;;;;;5070685;28;20246;-71
2023/07/30 01:51:39;;;;;;;3.63;2.50;;;16.20;99.90;;;;;;5070413;28;20230;-71
2023/07/30 01:54:04;;;;;;;5.77;2.40;;;16.10;99.90;;;;;;5069885;28;20169;-71
2023/07/30 01:56:30;;;;;;;3.00;2.70;;;16.10;99.90;;;;;;5070054;28;20188;-71
2023/07/30 01:58:56;;;;;;;6.23;2.80;;;16.10;99.90;;;;;;5068663;28;20204;-71
2023/07/30 02:01:22;;;;;;;7.23;3.10;;;16.10;99.90;;;;;;5070622;28;20173;-71
2023/07/30 02:03:48;;;;;;;2.67;2.23;;;16.10;99.90;;;;;;5068047;28;20204;-71
2023/07/30 02:06:13;;;;;;;5.10;2.97;;;16.00;99.90;;;;;;5070089;28;20423;-71
2023/07/30 02:08:39;;;;;;;4.13;2.43;;;15.90;99.90;;;;;;5070086;28;20233;-71
2023/07/30 02:11:04;;;;;;;3.80;2.53;;;15.90;99.90;;;;;;5070281;28;20751;-71
2023/07/30 02:13:30;;;;;;;3.70;2.50;;;15.80;99.90;;;;;;5070085;28;20213;-70
2023/07/30 02:15:56;;;;;;;4.53;2.53;;;15.80;99.90;;;;;;5069173;28;20173;-71
2023/07/30 02:18:21;;;;;;;3.40;2.50;;;15.80;99.90;;;;;;5070182;28;20267;-71
2023/07/30 02:20:47;;;;;;;4.43;2.43;;;15.80;99.90;;;;;;5070156;28;20174;-71
2023/07/30 02:23:16;;;;;;;7.20;2.83;;;15.70;99.90;;;;;;5070178;28;20172;-71
2023/07/30 02:25:42;;;;;;;8.70;3.17;;;15.70;99.90;;;;;;5066576;28;20185;-71
2023/07/30 02:28:08;;;;;;;2.60;2.40;;;15.70;99.90;;;;;;5069593;28;20435;-71
2023/07/30 02:30:34;;;;;;;5.77;2.93;;;15.80;99.90;;;;;;5070072;28;20472;-71
2023/07/30 02:32:59;;;;;;;5.00;3.10;;;15.80;99.90;;;;;;5069490;28;20208;-71
2023/07/30 02:35:25;;;;;;;5.43;3.20;;;15.80;99.90;;;;;;5065981;28;20408;-71
2023/07/30 02:37:51;;;;;;;4.00;2.87;;;15.80;99.90;;;;;;5070107;28;20561;-71
2023/07/30 02:40:17;;;;;;;3.77;2.93;;;15.80;99.90;;;;;;5069461;28;20611;-71
2023/07/30 02:42:42;;;;;;;3.70;2.97;;;15.70;99.90;;;;;;5069039;28;20184;-71
2023/07/30 02:45:08;;;;;;;4.63;2.60;;;15.70;99.90;;;;;;5068704;28;20196;-71
2023/07/30 02:47:34;;;;;;;5.53;2.90;;;15.70;99.90;;;;;;5069641;28;20825;-71
2023/07/30 02:50:00;;;;;;;3.50;2.73;;;15.70;99.90;;;;;;5069662;28;20181;-71
2023/07/30 02:52:25;;;;;;;4.00;2.50;;;15.70;99.90;;;;;;5069477;28;20201;-71
2023/07/30 02:54:51;;;;;;;5.70;3.13;;;15.70;99.90;;;;;;5068141;28;20169;-71
2023/07/30 02:57:17;;;;;;;4.63;2.97;;;15.70;99.90;;;;;;5068991;28;20229;-71
2023/07/30 02:59:43;;;;;;;7.53;3.10;;;15.70;99.90;;;;;;5068322;28;20934;-71
2023/07/30 03:02:08;;;;;;;6.40;3.03;;;15.70;99.90;;;;;;5069552;28;20705;-71
2023/07/30 03:04:34;;;;;;;3.40;2.53;;;15.70;99.90;;;;;;5068362;28;20185;-71
2023/07/30 03:07:00;;;;;;;6.63;3.07;;;15.70;99.90;;;;;;5068902;28;20470;-71
2023/07/30 03:09:27;;;;;;;4.50;3.03;;;15.60;99.90;;;;;;5068852;28;20419;-70
2023/07/30 03:11:53;;;;;;;3.47;3.17;;;15.60;99.90;;;;;;5069174;28;20209;-71
2023/07/30 03:14:20;;;;;;;7.10;3.33;;;15.60;99.90;;;;;;5068307;28;20946;-70
2023/07/30 03:16:47;;;;;;;4.90;3.23;;;15.60;99.90;;;;;;5068842;28;20411;-70
2023/07/30 03:19:13;;;;;;;5.27;2.70;;;15.60;99.90;;;;;;5069115;28;20923;-70
2023/07/30 03:21:38;;;;;;;4.90;3.00;;;15.60;99.90;;;;;;5068677;28;20406;-70
2023/07/30 03:24:04;;;;;;;6.20;3.27;;;15.60;99.90;;;;;;5068407;28;20452;-70
2023/07/30 03:26:30;;;;;;;4.30;3.40;;;15.50;99.90;;;;;;5068225;28;20188;-70
2023/07/30 03:28:55;;;;;;;3.77;3.10;;;15.50;99.90;;;;;;5068866;28;20177;-71
2023/07/30 03:31:21;;;;;;;8.03;2.80;;;15.60;99.90;;;;;;5068739;28;20253;-70
2023/07/30 03:33:47;;;;;;;10.43;4.90;;;15.60;99.90;;;;;;5068076;28;20199;-71
2023/07/30 03:36:13;;;;;;;4.23;2.97;;;15.60;99.90;;;;;;5068398;28;20208;-70
2023/07/30 03:38:40;;;;;;;3.00;2.70;;;15.60;99.90;;;;;;5068457;28;20185;-71
2023/07/30 03:41:06;;;;;;;4.57;3.17;;;15.60;99.90;;;;;;5068898;28;20564;-70
2023/07/30 03:43:35;;;;;;;4.27;3.07;;;15.60;99.90;;;;;;5064535;28;20431;-70
2023/07/30 03:46:01;;;;;;;7.43;2.80;;;15.60;99.90;;;;;;5068165;28;20435;-71
2023/07/30 03:48:27;;;;;;;7.00;3.13;;;15.60;99.90;;;;;;5068470;28;20474;-70
2023/07/30 03:50:54;;;;;;;3.30;2.63;;;15.60;99.90;;;;;;5066952;28;20220;-70
2023/07/30 03:53:20;;;;;;;4.00;2.30;;;15.60;99.90;;;;;;5068376;28;20454;-71
2023/07/30 03:55:45;;;;;;;3.70;2.87;;;15.50;99.90;;;;;;5067106;28;20407;-71
2023/07/30 03:58:11;;;;;;;6.20;2.90;;;15.50;99.90;;;;;;5066749;28;20635;-71
2023/07/30 04:00:37;;;;;;;3.20;2.57;;;15.50;99.90;;;;;;5068180;28;20204;-71
2023/07/30 04:03:03;;;;;;;3.90;3.00;;;15.50;99.90;;;;;;5067683;28;20189;-71
2023/07/30 04:05:29;;;;;;;6.47;2.83;;;15.50;99.90;;;;;;5067187;28;20681;-71
2023/07/30 04:07:55;;;;;;;5.43;2.83;;;15.40;99.90;;;;;;5067690;28;20272;-71
2023/07/30 04:10:21;;;;;;;3.73;2.63;;;15.50;99.90;;;;;;5067955;28;20889;-71
2023/07/30 04:12:47;;;;;;;4.00;2.53;;;15.40;99.90;;;;;;5067726;28;20207;-71
2023/07/30 04:15:12;;;;;;;4.73;2.90;;;15.40;99.90;;;;;;5066816;28;20407;-71
2023/07/30 04:17:38;;;;;;;5.00;3.00;;;15.40;99.90;;;;;;5067910;28;20200;-71
2023/07/30 04:20:05;;;;;;;3.90;2.93;;;15.40;99.90;;;;;;5067772;28;20180;-71
2023/07/30 04:22:31;;;;;;;5.10;3.50;;;15.50;99.90;;;;;;5067963;28;20184;-71
2023/07/30 04:24:57;;;;;;;4.27;2.50;;;15.40;99.90;;;;;;5066894;28;20430;-71
2023/07/30 04:27:22;;;;;;;6.13;4.27;;;15.40;99.90;;;;;;5067553;28;20427;-71
2023/07/30 04:29:48;;;;;;;3.80;2.90;;;15.50;99.90;;;;;;5067863;28;20177;-71
2023/07/30 04:32:14;;;;;;;5.70;2.93;;;15.50;99.90;;;;;;5080559;28;20192;-72
2023/07/30 04:34:40;;;;;;;4.53;2.90;;;15.50;99.90;;;;;;5087055;28;20680;-71
2023/07/30 04:37:06;;;;;;;11.63;3.50;;;15.50;99.90;;;;;;5087669;28;20197;-71
2023/07/30 04:39:35;;;;;;;7.80;3.63;;;15.50;99.90;;;;;;5088067;28;20176;-71
2023/07/30 04:42:01;;;;;;;7.57;3.30;;;15.50;99.90;;;;;;5087763;28;20414;-70
2023/07/30 04:44:27;;;;;;;6.23;2.97;;;15.50;99.90;;;;;;5086903;28;20466;-70
2023/07/30 04:46:53;;;;;;;5.97;2.70;;;15.50;99.90;;;;;;5073463;28;20200;-70
2023/07/30 04:49:18;;;;;;;6.13;3.40;;;15.50;99.90;;;;;;5067553;28;20177;-70
2023/07/30 04:51:44;;;;;;;5.80;3.50;;;15.50;99.90;;;;;;5067402;28;20419;-70
2023/07/30 04:54:10;;;;;;;6.67;3.03;;;15.50;99.90;;;;;;5066918;28;20265;-70
2023/07/30 04:56:36;;;;;;;5.20;2.93;;;15.50;99.90;;;;;;5064351;28;20261;-70
2023/07/30 04:59:02;;;;;;;7.27;3.53;;;15.50;99.90;;;;;;5066242;28;20211;-70
2023/07/30 05:01:28;;;;;;;6.07;3.50;;;15.60;99.90;;;;;;5067001;28;20427;-70
2023/07/30 05:03:54;;;;;;;8.17;3.27;;;15.60;99.90;;;;;;5066762;28;20446;-70
2023/07/30 05:06:19;;;;;;;5.83;2.90;;;15.60;99.90;;;;;;5066981;28;20407;-71
2023/07/30 05:08:45;;;;;;;8.53;3.20;;;15.60;99.90;;;;;;5067231;28;20236;-71
2023/07/30 05:11:11;;;;;;;8.80;3.97;;;15.60;99.90;;;;;;5067361;28;20196;-70
2023/07/30 05:13:36;;;;;;;4.63;3.03;;;15.60;99.90;;;;;;5066710;28;20201;-70
2023/07/30 05:16:02;;;;;;;4.47;3.00;;;15.70;99.90;;;;;;5066984;28;20166;-70
2023/07/30 05:18:28;;;;;;;5.70;3.27;;;15.70;99.90;;;;;;5067451;28;20642;-71
2023/07/30 05:20:55;;;;;;;5.20;3.33;;;15.80;99.90;;;;;;5071291;28;20180;-70
2023/07/30 05:23:20;;;;;;;3.77;2.40;;;15.80;99.90;;;;;;5071145;28;20468;-70
2023/07/30 05:25:46;;;;;;;9.03;3.30;;;15.80;99.90;;;;;;5069954;28;20416;-70
2023/07/30 05:28:12;;;;;;;7.57;3.43;;;15.80;99.90;;;;;;5070791;28;20189;-70
2023/07/30 05:30:38;;;;;;;8.67;3.50;;;15.80;99.90;;;;;;5070953;28;20209;-71
2023/07/30 05:33:04;;;;;;;10.57;3.07;;;15.80;99.90;;;;;;5051029;28;20999;-71
2023/07/30 05:35:29;;;;;;;7.20;3.10;;;15.90;99.90;;;;;;5050057;28;20217;-71
2023/07/30 05:37:55;;;;;;;6.20;3.40;;;16.00;99.90;;;;;;5050465;28;20431;-71
2023/07/30 05:40:21;;;;;;;7.13;3.37;;;15.90;99.90;;;;;;5050899;28;20170;-71
2023/07/30 05:42:47;;;;;;;8.03;3.00;;;15.90;99.90;;;;;;5050671;28;20542;-71
2023/07/30 05:45:13;;;;;;;5.43;3.13;;;15.90;99.90;;;;;;5050012;28;20400;-71
2023/07/30 05:47:38;;;;;;;5.93;3.63;;;16.00;99.90;;;;;;5067480;28;20204;-70
2023/07/30 05:50:05;;;;;;;5.40;2.70;;;16.00;99.90;;;;;;5070546;28;20181;-71
2023/07/30 05:52:31;;;;;;;6.10;3.23;;;16.00;99.90;;;;;;5070311;28;20537;-70
2023/07/30 05:54:56;;;;;;;6.97;3.13;;;16.00;99.90;;;;;;5069744;28;20407;-71
2023/07/30 05:57:22;;;;;;;6.30;2.90;;;16.00;99.90;;;;;;5069880;28;20204;-71
2023/07/30 05:59:47;;;;;;;7.80;2.70;;;16.00;99.90;;;;;;5069672;28;20260;-71
2023/07/30 06:02:13;;;;;;;7.17;3.53;;;16.00;99.90;;;;;;5070204;28;20172;-70
2023/07/30 06:04:39;;;;;;;5.67;3.30;;;16.00;99.90;;;;;;5069330;28;20212;-70
2023/07/30 06:07:05;;;;;;;4.63;3.30;;;16.10;99.90;;;;;;5069700;28;20201;-71
2023/07/30 06:09:31;;;;;;;4.43;3.03;;;16.10;99.90;;;;;;5070297;28;20411;-70
2023/07/30 06:11:57;;;;;;;7.40;3.10;;;16.20;99.90;;;;;;5070266;28;20180;-70
2023/07/30 06:14:24;;;;;;;6.47;3.00;;;16.20;99.90;;;;;;5069291;28;20182;-71
2023/07/30 06:16:50;;;;;;;10.00;3.37;;;16.20;99.90;;;;;;5070144;28;20435;-71
2023/07/30 06:19:16;;;;;;;8.83;3.23;;;16.20;99.90;;;;;;5069940;28;20403;-70
2023/07/30 06:21:42;;;;;;;9.80;3.77;;;16.20;99.90;;;;;;5070247;28;20748;-70
2023/07/30 06:24:08;;;;;;;7.07;2.87;;;16.10;99.90;;;;;;5069348;28;20449;-71
2023/07/30 06:26:33;;;;;;;7.00;2.83;;;16.10;99.90;;;;;;5069570;28;20525;-71
2023/07/30 06:28:59;;;;;;;11.83;3.67;;;16.10;99.90;;;;;;5069849;28;20176;-71
2023/07/30 06:31:25;;;;;;;7.10;3.50;;;16.10;99.90;;;;;;5068404;28;20173;-71
2023/07/30 06:33:51;;;;;;;9.90;2.70;;;16.20;99.90;;;;;;5069097;28;20291;-71
2023/07/30 06:36:16;;;;;;;5.43;2.60;;;16.20;99.90;;;;;;5069488;28;20169;-71
2023/07/30 06:38:42;;;;;;;4.57;2.50;;;16.20;99.90;;;;;;5069467;28;20189;-71
2023/07/30 06:41:08;;;;;;;5.40;2.53;;;16.20;99.90;;;;;;5069782;28;20169;-71
2023/07/30 06:43:33;;;;;;;3.63;2.30;;;16.20;99.90;;;;;;5069052;28;20592;-71
2023/07/30 06:45:59;;;;;;;7.27;2.70;;;16.10;99.90;;;;;;5069119;28;20177;-70
2023/07/30 06:48:25;;;;;;;4.93;2.07;;;16.10;99.90;;;;;;5069321;28;20544;-71
2023/07/30 06:50:50;;;;;;;5.13;2.30;;;16.00;99.90;;;;;;5069433;28;20184;-71
2023/07/30 06:53:16;;;;;;;4.33;2.27;;;16.00;99.90;;;;;;5069392;28;20204;-71
2023/07/30 06:55:41;;;;;;;4.73;2.80;;;16.00;99.90;;;;;;5068282;28;20165;-71
2023/07/30 06:58:07;;;;;;;4.47;2.47;;;16.10;99.90;;;;;;5067035;28;20196;-71
2023/07/30 07:00:33;;;;;;;5.73;3.13;;;16.10;99.90;;;;;;5067848;28;20285;-71
2023/07/30 07:02:59;;;;;;;4.10;2.60;;;16.10;99.90;;;;;;5068967;28;20272;-71
2023/07/30 07:05:24;;;;;;;5.27;2.73;;;16.10;99.90;;;;;;5068453;28;20252;-71
2023/07/30 07:07:50;;;;;;;4.53;2.60;;;16.10;99.90;;;;;;5068838;28;20204;-70
2023/07/30 07:10:16;;;;;;;5.33;2.40;;;16.10;99.90;;;;;;5068062;28;20181;-71
2023/07/30 07:12:41;;;;;;;8.63;3.30;;;16.10;99.90;;;;;;5068990;28;20201;-70
2023/07/30 07:15:08;;;;;;;6.40;3.03;;;16.10;99.90;;;;;;5068010;28;20185;-71
2023/07/30 07:17:35;;;;;;;5.40;3.30;;;16.10;99.90;;;;;;5065800;28;20193;-70
2023/07/30 07:20:00;;;;;;;4.47;2.93;;;16.20;99.90;;;;;;5068035;28;20423;-71
2023/07/30 07:22:26;;;;;;;7.80;3.00;;;16.20;99.90;;;;;;5068761;28;20415;-70
2023/07/30 07:24:52;;;;;;;6.90;2.53;;;16.20;99.90;;;;;;5063398;28;20185;-71
2023/07/30 07:27:23;;;;;;;5.60;2.50;;;16.10;99.90;;;;;;5067447;28;20238;-71
2023/07/30 07:29:50;;;;;;;5.90;2.70;;;16.10;99.90;;;;;;5068437;28;20449;-71
2023/07/30 07:32:15;;;;;;;8.63;2.30;;;16.20;99.90;;;;;;5068664;28;20562;-71
2023/07/30 07:34:41;;;;;;;5.30;2.73;;;16.10;99.90;;;;;;5067634;28;20499;-70
2023/07/30 07:37:07;;;;;;;5.33;2.80;;;16.20;99.90;;;;;;5068389;28;20193;-71
2023/07/30 07:39:33;;;;;;;4.20;2.50;;;16.20;99.90;;;;;;5067742;28;20177;-71
2023/07/30 07:41:59;;;;;;;4.87;3.00;;;16.10;99.90;;;;;;5067939;28;20173;-70
2023/07/30 07:44:24;;;;;;;6.73;2.87;;;16.10;99.90;;;;;;5067528;28;20444;-71
2023/07/30 07:46:50;;;;;;;5.77;3.27;;;16.10;99.90;;;;;;5067994;28;20197;-71
2023/07/30 07:49:16;;;;;;;4.37;2.60;;;16.10;99.90;;;;;;5067629;28;20223;-71
2023/07/30 07:51:41;;;;;;;9.00;2.90;;;16.10;99.90;;;;;;5067898;28;20646;-71
2023/07/30 07:54:07;;;;;;;6.40;3.60;;;16.10;99.90;;;;;;5066617;28;20209;-70
2023/07/30 07:56:33;;;;;;;6.50;3.00;;;16.20;99.90;;;;;;5067135;28;20642;-71
2023/07/30 07:58:59;;;;;;;9.30;3.17;;;16.20;99.90;;;;;;5066681;28;20218;-71
2023/07/30 08:01:24;;;;;;;6.70;2.90;;;16.20;99.90;;;;;;5064179;28;20165;-70
2023/07/30 08:03:50;;;;;;;9.40;3.17;;;16.30;99.90;;;;;;5054973;28;20490;-71
2023/07/30 08:06:16;;;;;;;5.47;3.20;;;16.30;99.90;;;;;;5068013;28;20836;-70
2023/07/30 08:08:42;;;;;;;6.77;2.80;;;16.30;99.90;;;;;;5067692;28;20454;-70
2023/07/30 08:11:08;;;;;;;4.20;2.57;;;16.30;99.90;;;;;;5068842;28;20695;-71
2023/07/30 08:13:35;;;;;;;6.50;2.97;;;16.40;99.90;;;;;;5066449;28;20243;-71
2023/07/30 08:16:01;;;;;;;5.70;3.40;;;16.40;99.90;;;;;;5072658;28;20441;-71
2023/07/30 08:18:27;;;;;;;5.07;2.87;;;16.50;99.90;;;;;;5066697;28;20672;-70
2023/07/30 08:20:53;;;;;;;6.60;2.93;;;16.50;99.90;;;;;;5062602;28;20447;-71
2023/07/30 08:23:19;;;;;;;7.83;3.50;;;16.60;99.90;;;;;;5066725;28;20450;-70
2023/07/30 08:25:45;;;;;;;6.87;3.10;;;16.60;99.90;;;;;;5066824;28;20213;-71
2023/07/30 08:28:11;;;;;;;5.60;2.80;;;16.60;99.90;;;;;;5059932;28;20243;-71
2023/07/30 08:30:36;;;;;;;4.33;2.90;;;16.60;99.90;;;;;;5059885;28;20270;-71
2023/07/30 08:33:02;;;;;;;6.10;3.17;;;16.60;99.90;;;;;;5073167;28;20212;-71
2023/07/30 08:35:28;;;;;;;5.27;3.13;;;16.70;99.90;;;;;;5063585;28;20213;-70
2023/07/30 08:37:54;;;;;;;5.93;3.13;;;16.70;99.90;;;;;;5062749;28;20608;-71
2023/07/30 08:40:24;;;;;;;6.90;3.33;;;16.80;99.90;;;;;;5072793;28;20459;-70
2023/07/30 08:42:53;;;;;;;5.13;3.03;;;16.80;99.90;;;;;;5067051;28;20508;-70
2023/07/30 08:45:20;;;;;;;9.60;3.23;;;16.80;99.90;;;;;;5068982;28;20466;-71
2023/07/30 08:47:47;;;;;;;5.07;2.43;;;16.90;99.90;;;;;;5066222;28;20522;-71
2023/07/30 08:50:13;;;;;;;6.13;3.67;;;16.90;99.90;;;;;;5066885;28;20439;-71
2023/07/30 08:52:39;;;;;;;10.23;3.53;;;16.90;99.90;;;;;;5066167;28;20456;-70
2023/07/30 08:55:06;;;;;;;5.37;3.10;;;17.00;99.90;;;;;;5065636;28;21278;-70
2023/07/30 08:57:32;;;;;;;9.57;3.80;;;17.00;99.90;;;;;;5069473;28;20447;-71
2023/07/30 09:00:08;;;;;;;8.70;3.27;;;17.10;99.90;;;;;;5066234;28;20903;-71
2023/07/30 09:02:39;;;;;;;9.23;3.40;;;17.20;99.90;;;;;;5063639;28;20447;-70
2023/07/30 09:05:06;;;;;;;6.20;3.30;;;17.30;99.90;;;;;;5066559;28;20458;-70
2023/07/30 09:07:31;;;;;;;8.47;3.50;;;17.40;99.90;;;;;;5070693;28;20526;-70
2023/07/30 09:09:58;;;;;;;9.43;3.40;;;17.50;99.90;;;;;;5060721;28;20563;-70
2023/07/30 09:12:31;;;;;;;9.77;3.80;;;17.70;99.90;;;;;;5068452;28;20979;-70
2023/07/30 09:14:57;;;;;;;3.50;3.20;;;17.70;99.90;;;;;;5067763;28;20499;-70
2023/07/30 09:17:23;;;;;;;10.17;3.57;;;17.70;99.90;;;;;;5069850;28;20466;-71
2023/07/30 09:19:50;;;;;;;7.93;3.33;;;17.70;99.90;;;;;;5069142;28;20270;-71
2023/07/30 09:22:38;;;;;;;7.40;3.83;;;17.70;99.90;;;;;;5068081;28;20488;-71
2023/07/30 09:25:05;;;;;;;6.67;3.67;;;17.70;99.90;;;;;;5063580;28;20504;-70
2023/07/30 09:27:32;;;;;;;10.20;3.97;;;17.70;99.90;;;;;;5066655;28;20502;-72
2023/07/30 09:30:00;;;;;;;5.57;3.87;;;17.70;99.90;;;;;;5063702;28;20428;-71
2023/07/30 09:32:31;;;;;;;10.27;4.47;;;17.80;99.90;;;;;;5066220;28;20458;-70
2023/07/30 09:35:10;;;;;;;10.83;4.00;;;17.80;99.90;;;;;;5058088;28;21483;-71
2023/07/30 09:37:41;;;;;;;7.03;3.77;;;17.90;99.90;;;;;;5063908;28;20434;-71
2023/07/30 09:40:08;;;;;;;10.93;3.63;;;17.90;99.90;;;;;;5068484;28;20415;-70
2023/07/30 09:42:37;;;;;;;4.80;3.30;;;18.00;99.90;;;;;;5063881;28;20838;-70
2023/07/30 09:45:03;;;;;;;6.83;4.10;;;18.10;99.90;;;;;;5065987;28;20427;-70
2023/07/30 09:47:31;;;;;;;6.97;3.33;;;18.40;99.90;;;;;;5066730;28;20957;-71
2023/07/30 09:49:56;;;;;;;6.97;3.53;;;18.50;99.90;;;;;;5068362;28;20419;-70
2023/07/30 09:52:22;;;;;;;6.73;2.90;;;18.70;99.90;;;;;;5063063;28;20503;-71
2023/07/30 09:54:51;;;;;;;5.80;3.60;;;18.90;99.90;;;;;;5065728;28;20247;-71
2023/07/30 09:57:17;;;;;;;7.10;3.13;;;19.10;99.90;;;;;;5061776;28;20235;-70
2023/07/30 09:59:42;;;;;;;7.57;3.40;;;19.20;99.90;;;;;;5065622;28;20935;-71
2023/07/30 10:02:11;;;;;;;5.07;3.03;;;19.30;99.90;;;;;;5067007;28;20420;-71
2023/07/30 10:04:43;;;;;;;9.20;2.83;;;19.40;99.90;;;;;;5062953;28;20193;-71
2023/07/30 10:07:18;;;;;;;5.77;2.70;;;19.60;99.90;;;;;;5065119;28;20980;-71
2023/07/30 10:09:46;;;;;;;4.50;2.30;;;19.70;99.90;;;;;;5062302;28;21037;-71
2023/07/30 10:12:22;;;;;;;11.47;2.37;;;19.80;99.90;;;;;;5062586;28;20555;-71
2023/07/30 10:14:48;;;;;;;4.73;2.50;;;19.70;99.90;;;;;;5066250;28;20443;-71
2023/07/30 10:17:16;;;;;;;8.23;2.40;;;19.90;99.90;;;;;;5069641;28;20474;-71
2023/07/30 10:19:46;;;;;;;7.77;2.87;;;19.90;99.90;;;;;;5067638;28;20624;-71
2023/07/30 10:22:17;;;;;;;4.93;2.37;;;19.90;99.90;;;;;;5059636;28;20424;-71
2023/07/30 10:24:57;;;;;;;4.87;2.33;;;19.80;99.90;;;;;;5061808;28;20416;-71
2023/07/30 10:27:24;;;;;;;8.60;2.80;;;19.90;99.90;;;;;;5068442;28;20919;-71
2023/07/30 10:30:14;;;;;;;8.73;2.20;;;20.00;99.90;;;;;;5058273;28;20429;-72
2023/07/30 10:32:55;;;;;;;5.00;2.30;;;20.10;99.90;;;;;;5064685;28;20471;-71
2023/07/30 10:35:40;;;;;;;6.37;2.33;;;20.30;99.90;;;;;;5059541;28;20490;-71
2023/07/30 10:38:28;;;;;;;3.53;1.93;;;20.40;99.90;;;;;;5060337;28;20447;-71
2023/07/30 10:41:08;;;;;;;3.93;1.80;;;20.30;99.90;;;;;;5064569;28;20540;-71
2023/07/30 10:43:41;;;;;;;7.07;2.47;;;20.30;99.90;;;;;;5054663;28;20873;-72
2023/07/30 10:46:11;;;;;;;6.63;2.37;;;20.40;99.90;;;;;;5066313;28;20455;-72
2023/07/30 10:48:39;;;;;;;3.57;2.10;;;20.40;99.90;;;;;;5069077;28;20435;-72
2023/07/30 10:51:07;;;;;;;5.40;2.20;;;20.30;99.90;;;;;;5060284;28;20420;-72
2023/07/30 10:53:33;;;;;;;5.07;2.27;;;20.20;99.90;;;;;;5066798;28;20498;-72
2023/07/30 10:56:03;;;;;;;4.57;2.13;;;20.10;99.90;;;;;;5065039;28;20443;-72
2023/07/30 10:58:31;;;;;;;5.17;2.17;;;20.00;99.90;;;;;;5065228;28;20439;-71
2023/07/30 11:00:57;;;;;;;4.27;2.00;;;19.80;99.90;;;;;;5065201;28;20484;-72
2023/07/30 11:03:27;;;;;;;4.83;2.40;;;19.70;99.90;;;;;;5064151;28;20450;-71
2023/07/30 11:05:53;;;;;;;5.33;2.53;;;19.70;99.90;;;;;;5063349;28;20427;-72
2023/07/30 11:08:19;;;;;;;4.53;2.90;;;19.70;99.90;;;;;;5061788;28;20451;-72
2023/07/30 11:10:46;;;;;;;10.00;2.10;;;19.70;99.90;;;;;;5060554;28;20420;-72
2023/07/30 11:13:13;;;;;;;8.67;2.50;;;19.70;99.90;;;;;;5062446;28;20274;-72
2023/07/30 11:15:43;;;;;;;4.57;2.20;;;19.80;99.90;;;;;;5045888;28;20479;-72
2023/07/30 11:18:10;;;;;;;5.00;2.00;;;19.90;99.90;;;;;;5059633;28;20506;-72
2023/07/30 11:20:36;;;;;;;7.90;2.30;;;20.00;99.90;;;;;;5063356;28;20431;-72
2023/07/30 11:23:02;;;;;;;4.77;1.90;;;20.10;99.90;;;;;;5057554;28;20477;-72
2023/07/30 11:25:28;;;;;;;6.87;2.17;;;20.30;99.90;;;;;;5061330;28;20412;-72
2023/07/30 11:27:53;;;;;;;5.40;2.20;;;20.30;99.90;;;;;;5064390;28;20205;-72
2023/07/30 11:30:19;;;;;;;5.97;2.40;;;20.40;99.90;;;;;;5060626;28;20200;-71
2023/07/30 11:32:45;;;;;;;3.17;1.80;;;20.30;99.90;;;;;;5065800;28;20266;-71
2023/07/30 11:35:13;;;;;;;7.50;2.53;;;20.30;99.90;;;;;;5057841;28;20185;-71
2023/07/30 11:37:42;;;;;;;5.03;2.10;;;20.30;99.90;;;;;;5062075;28;20216;-71
2023/07/30 11:40:09;;;;;;;2.97;1.83;;;20.30;99.90;;;;;;5068301;28;20419;-71
2023/07/30 11:42:39;;;;;;;4.37;2.17;;;20.20;99.90;;;;;;5063609;28;20424;-72
2023/07/30 11:45:21;;;;;;;5.17;2.20;;;20.10;99.90;;;;;;5062363;28;20830;-72
2023/07/30 11:47:47;;;;;;;4.03;1.77;;;20.00;99.90;;;;;;5067563;28;20454;-72
2023/07/30 11:50:13;;;;;;;7.10;1.60;;;20.00;99.90;;;;;;5068029;28;20431;-72
2023/07/30 11:52:55;;;;;;;4.93;1.97;;;20.10;99.90;;;;;;5061682;28;20490;-72
2023/07/30 11:55:23;;;;;;;4.07;1.67;;;20.10;99.90;;;;;;5059788;28;20490;-72
2023/07/30 11:57:48;;;;;;;3.83;2.00;;;20.10;99.90;;;;;;5064429;28;20970;-72
2023/07/30 12:00:15;;;;;;;3.67;1.50;;;20.10;99.90;;;;;;5060112;28;20430;-71
2023/07/30 12:02:41;;;;;;;7.47;1.90;;;20.30;99.90;;;;;;5064596;28;20189;-72
2023/07/30 12:05:10;;;;;;;6.03;1.90;;;20.30;99.90;;;;;;5060421;28;20451;-72
2023/07/30 12:07:41;;;;;;;3.43;1.70;;;20.40;99.90;;;;;;5061722;28;20462;-72
2023/07/30 12:10:11;;;;;;;4.67;1.80;;;20.50;99.90;;;;;;5064183;28;20439;-72
2023/07/30 12:12:43;;;;;;;4.77;1.90;;;20.60;99.90;;;;;;5061383;28;20450;-72
2023/07/30 12:15:12;;;;;;;5.10;2.00;;;20.70;99.90;;;;;;5061308;28;20413;-72
2023/07/30 12:17:38;;;;;;;6.60;2.17;;;20.70;99.90;;;;;;5060501;28;20439;-72
2023/07/30 12:20:06;;;;;;;3.80;1.87;;;20.90;99.90;;;;;;5061005;28;20435;-71
2023/07/30 12:22:35;;;;;;;5.03;2.03;;;21.00;99.90;;;;;;5067821;28;20434;-72
2023/07/30 12:25:03;;;;;;;4.00;1.70;;;21.20;99.90;;;;;;5047176;28;20427;-72
2023/07/30 12:27:29;;;;;;;5.67;1.80;;;21.20;99.90;;;;;;5047991;28;20558;-72
2023/07/30 12:29:55;;;;;;;5.47;2.10;;;21.30;99.90;;;;;;5065448;28;20450;-72
2023/07/30 12:32:21;;;;;;;6.20;1.70;;;21.10;99.90;;;;;;5081705;28;21078;-72
2023/07/30 12:34:46;;;;;;;4.63;1.70;;;21.20;99.90;;;;;;5070845;28;20182;-73
2023/07/30 12:37:12;;;;;;;5.37;1.60;;;21.30;99.90;;;;;;5063580;28;20209;-72
2023/07/30 12:39:38;;;;;;;3.27;1.60;;;21.30;99.90;;;;;;5065305;28;20323;-72
2023/07/30 12:42:04;;;;;;;5.83;1.50;;;21.40;99.90;;;;;;5065742;28;20276;-72
2023/07/30 12:44:29;;;;;;;5.10;1.90;;;21.30;99.90;;;;;;5060193;28;20193;-72